Gaspe, Canada
Current Conditions -  °F | °C
As of 1:00 PM on Thursday 18 Dec 2014 (Local Time) from CYGP Reporting Station
Moderate Snow Moderate Snow  
Wind Chill: 30°   Ceiling: 400
Heat Index: 30°   Visibility: 0.37mi
Dew Point: 28°   Wind: 2mph
Humidity: 93%   Direction: NA
Pressure: 29.58"   Gusts: NA
Location:  48.83°N, 64.49°W
Report Text: CYGP 181800Z VRB02KT 3/8SM SN VV004 M01/M02 A2958 RMK SN8 /S11/ SLP017
Loading
Personal Weather Stations






























Interactive Weather Map New forecast layout! Learn more

10-Day Weather Forecast

Advertisements
Track Severe Weather on mobile